sensor_id;sensor_type;location;lat;lon;timestamp;temperature;humidity
7447;DHT22;3765;47.962;7.952;2023-11-22T00:00:19;9.00;97.00
7447;DHT22;3765;47.962;7.952;2023-11-22T00:02:48;8.90;96.90
7447;DHT22;3765;47.962;7.952;2023-11-22T00:05:17;9.00;97.00
7447;DHT22;3765;47.962;7.952;2023-11-22T00:07:45;8.90;97.00
7447;DHT22;3765;47.962;7.952;2023-11-22T00:10:14;9.00;97.00
7447;DHT22;3765;47.962;7.952;2023-11-22T00:12:43;9.00;97.00
7447;DHT22;3765;47.962;7.952;2023-11-22T00:15:12;9.00;97.00
7447;DHT22;3765;47.962;7.952;2023-11-22T00:17:45;9.10;97.00
7447;DHT22;3765;47.962;7.952;2023-11-22T00:20:13;9.00;97.00
7447;DHT22;3765;47.962;7.952;2023-11-22T00:22:41;9.00;97.00
7447;DHT22;3765;47.962;7.952;2023-11-22T00:25:11;9.00;97.00
7447;DHT22;3765;47.962;7.952;2023-11-22T00:27:41;8.90;97.00
7447;DHT22;3765;47.962;7.952;2023-11-22T00:30:12;8.90;97.00
7447;DHT22;3765;47.962;7.952;2023-11-22T00:32:40;8.90;97.00
7447;DHT22;3765;47.962;7.952;2023-11-22T00:35:09;8.90;97.00
7447;DHT22;3765;47.962;7.952;2023-11-22T00:37:37;8.90;97.00
7447;DHT22;3765;47.962;7.952;2023-11-22T00:40:06;9.00;97.00
7447;DHT22;3765;47.962;7.952;2023-11-22T00:42:38;9.00;97.00
7447;DHT22;3765;47.962;7.952;2023-11-22T00:45:09;9.00;97.00
7447;DHT22;3765;47.962;7.952;2023-11-22T00:47:38;9.00;97.00
7447;DHT22;3765;47.962;7.952;2023-11-22T00:50:07;9.00;97.00
7447;DHT22;3765;47.962;7.952;2023-11-22T00:52:36;8.80;97.00
7447;DHT22;3765;47.962;7.952;2023-11-22T00:55:04;8.90;97.00
7447;DHT22;3765;47.962;7.952;2023-11-22T00:57:33;8.80;97.00
7447;DHT22;3765;47.962;7.952;2023-11-22T01:00:01;8.80;97.00
7447;DHT22;3765;47.962;7.952;2023-11-22T01:02:31;8.80;97.00
7447;DHT22;3765;47.962;7.952;2023-11-22T01:05:01;8.90;97.00
7447;DHT22;3765;47.962;7.952;2023-11-22T01:07:30;8.80;97.00
7447;DHT22;3765;47.962;7.952;2023-11-22T01:09:58;8.70;97.00
7447;DHT22;3765;47.962;7.952;2023-11-22T01:12:26;8.70;97.00
7447;DHT22;3765;47.962;7.952;2023-11-22T01:14:55;8.70;97.00
7447;DHT22;3765;47.962;7.952;2023-11-22T01:17:23;8.70;97.00
7447;DHT22;3765;47.962;7.952;2023-11-22T01:19:51;8.70;97.00
7447;DHT22;3765;47.962;7.952;2023-11-22T01:22:21;8.60;97.00
7447;DHT22;3765;47.962;7.952;2023-11-22T01:24:49;8.70;97.00
7447;DHT22;3765;47.962;7.952;2023-11-22T01:27:17;8.70;97.00
7447;DHT22;3765;47.962;7.952;2023-11-22T01:29:45;8.70;97.00
7447;DHT22;3765;47.962;7.952;2023-11-22T01:32:14;8.70;97.00
7447;DHT22;3765;47.962;7.952;2023-11-22T01:34:44;8.70;97.00
7447;DHT22;3765;47.962;7.952;2023-11-22T01:37:12;8.80;97.00
7447;DHT22;3765;47.962;7.952;2023-11-22T01:39:41;8.70;97.00
7447;DHT22;3765;47.962;7.952;2023-11-22T01:42:10;8.70;97.00
7447;DHT22;3765;47.962;7.952;2023-11-22T01:44:38;8.60;97.00
7447;DHT22;3765;47.962;7.952;2023-11-22T01:47:06;8.60;97.00
7447;DHT22;3765;47.962;7.952;2023-11-22T01:49:33;8.70;97.00
7447;DHT22;3765;47.962;7.952;2023-11-22T01:52:03;8.70;97.00
7447;DHT22;3765;47.962;7.952;2023-11-22T01:54:32;8.80;97.00
7447;DHT22;3765;47.962;7.952;2023-11-22T01:57:02;8.80;97.00
7447;DHT22;3765;47.962;7.952;2023-11-22T01:59:35;8.70;97.00
7447;DHT22;3765;47.962;7.952;2023-11-22T02:02:03;8.60;97.00
7447;DHT22;3765;47.962;7.952;2023-11-22T02:04:32;8.60;97.00
7447;DHT22;3765;47.962;7.952;2023-11-22T02:07:00;8.60;97.00
7447;DHT22;3765;47.962;7.952;2023-11-22T02:09:28;8.60;97.00
7447;DHT22;3765;47.962;7.952;2023-11-22T02:11:57;8.60;97.00
7447;DHT22;3765;47.962;7.952;2023-11-22T02:14:26;8.50;97.00
7447;DHT22;3765;47.962;7.952;2023-11-22T02:16:58;8.40;97.00
7447;DHT22;3765;47.962;7.952;2023-11-22T02:19:27;8.50;97.00
7447;DHT22;3765;47.962;7.952;2023-11-22T02:21:57;8.50;97.00
7447;DHT22;3765;47.962;7.952;2023-11-22T02:24:27;8.50;97.00
7447;DHT22;3765;47.962;7.952;2023-11-22T02:26:55;8.60;97.00
7447;DHT22;3765;47.962;7.952;2023-11-22T02:29:23;8.60;97.00
7447;DHT22;3765;47.962;7.952;2023-11-22T02:31:52;8.60;97.00
7447;DHT22;3765;47.962;7.952;2023-11-22T02:34:20;8.60;97.00
7447;DHT22;3765;47.962;7.952;2023-11-22T02:36:48;8.60;97.00
7447;DHT22;3765;47.962;7.952;2023-11-22T02:39:40;8.60;97.00
7447;DHT22;3765;47.962;7.952;2023-11-22T02:42:10;8.60;97.00
7447;DHT22;3765;47.962;7.952;2023-11-22T02:44:38;8.60;97.00
7447;DHT22;3765;47.962;7.952;2023-11-22T02:47:07;8.50;97.00
7447;DHT22;3765;47.962;7.952;2023-11-22T02:49:37;8.50;97.00
7447;DHT22;3765;47.962;7.952;2023-11-22T02:52:06;8.50;97.00
7447;DHT22;3765;47.962;7.952;2023-11-22T02:54:35;8.60;97.00
7447;DHT22;3765;47.962;7.952;2023-11-22T02:57:04;8.50;97.00
7447;DHT22;3765;47.962;7.952;2023-11-22T02:59:32;8.40;97.00
7447;DHT22;3765;47.962;7.952;2023-11-22T03:02:00;8.50;97.00
7447;DHT22;3765;47.962;7.952;2023-11-22T03:04:29;8.60;97.00
7447;DHT22;3765;47.962;7.952;2023-11-22T03:06:58;8.60;97.00
7447;DHT22;3765;47.962;7.952;2023-11-22T03:09:26;8.60;97.00
7447;DHT22;3765;47.962;7.952;2023-11-22T03:11:56;8.60;97.00
7447;DHT22;3765;47.962;7.952;2023-11-22T03:14:24;8.60;97.00
7447;DHT22;3765;47.962;7.952;2023-11-22T03:16:52;8.50;97.00
7447;DHT22;3765;47.962;7.952;2023-11-22T03:19:20;8.50;97.00
7447;DHT22;3765;47.962;7.952;2023-11-22T03:21:48;8.50;97.00
7447;DHT22;3765;47.962;7.952;2023-11-22T03:24:17;8.50;97.00
7447;DHT22;3765;47.962;7.952;2023-11-22T03:26:45;8.50;97.00
7447;DHT22;3765;47.962;7.952;2023-11-22T03:29:15;8.50;97.00
7447;DHT22;3765;47.962;7.952;2023-11-22T03:31:45;8.50;97.00
7447;DHT22;3765;47.962;7.952;2023-11-22T03:34:14;8.50;97.00
7447;DHT22;3765;47.962;7.952;2023-11-22T03:36:43;8.40;97.00
7447;DHT22;3765;47.962;7.952;2023-11-22T03:39:11;8.40;97.00
7447;DHT22;3765;47.962;7.952;2023-11-22T03:41:41;8.40;97.00
7447;DHT22;3765;47.962;7.952;2023-11-22T03:44:10;8.40;97.00
7447;DHT22;3765;47.962;7.952;2023-11-22T03:46:39;8.30;97.00
7447;DHT22;3765;47.962;7.952;2023-11-22T03:49:07;8.20;97.00
7447;DHT22;3765;47.962;7.952;2023-11-22T03:51:38;8.20;97.00
7447;DHT22;3765;47.962;7.952;2023-11-22T03:54:06;8.20;97.00
7447;DHT22;3765;47.962;7.952;2023-11-22T03:56:36;8.20;97.00
7447;DHT22;3765;47.962;7.952;2023-11-22T03:59:05;8.10;97.00
7447;DHT22;3765;47.962;7.952;2023-11-22T04:01:33;7.90;97.00
7447;DHT22;3765;47.962;7.952;2023-11-22T04:04:03;7.90;97.00
7447;DHT22;3765;47.962;7.952;2023-11-22T04:06:32;7.80;97.00
7447;DHT22;3765;47.962;7.952;2023-11-22T04:09:01;7.70;97.00
7447;DHT22;3765;47.962;7.952;2023-11-22T04:11:29;7.60;97.00
7447;DHT22;3765;47.962;7.952;2023-11-22T04:13:58;7.60;97.00
7447;DHT22;3765;47.962;7.952;2023-11-22T04:16:27;7.50;97.00
7447;DHT22;3765;47.962;7.952;2023-11-22T04:18:55;7.40;97.00
7447;DHT22;3765;47.962;7.952;2023-11-22T04:21:26;7.30;97.00
7447;DHT22;3765;47.962;7.952;2023-11-22T04:23:54;7.20;97.00
7447;DHT22;3765;47.962;7.952;2023-11-22T04:26:23;7.30;97.00
7447;DHT22;3765;47.962;7.952;2023-11-22T04:28:51;7.20;97.00
7447;DHT22;3765;47.962;7.952;2023-11-22T04:31:20;7.10;97.00
7447;DHT22;3765;47.962;7.952;2023-11-22T04:33:48;7.10;97.00
7447;DHT22;3765;47.962;7.952;2023-11-22T04:36:17;7.20;97.00
7447;DHT22;3765;47.962;7.952;2023-11-22T04:38:50;7.10;97.00
7447;DHT22;3765;47.962;7.952;2023-11-22T04:41:18;7.00;97.00
7447;DHT22;3765;47.962;7.952;2023-11-22T04:43:46;6.90;97.00
7447;DHT22;3765;47.962;7.952;2023-11-22T04:46:15;7.10;97.00
7447;DHT22;3765;47.962;7.952;2023-11-22T04:48:43;7.00;97.00
7447;DHT22;3765;47.962;7.952;2023-11-22T04:51:12;6.80;97.00
7447;DHT22;3765;47.962;7.952;2023-11-22T04:53:40;6.90;97.00
7447;DHT22;3765;47.962;7.952;2023-11-22T04:56:12;6.80;97.00
7447;DHT22;3765;47.962;7.952;2023-11-22T04:58:40;6.70;97.00
7447;DHT22;3765;47.962;7.952;2023-11-22T05:01:08;6.60;97.00
7447;DHT22;3765;47.962;7.952;2023-11-22T05:03:37;6.50;97.00
7447;DHT22;3765;47.962;7.952;2023-11-22T05:06:05;6.40;97.00
7447;DHT22;3765;47.962;7.952;2023-11-22T05:08:34;6.30;97.00
7447;DHT22;3765;47.962;7.952;2023-11-22T05:11:02;6.30;97.00
7447;DHT22;3765;47.962;7.952;2023-11-22T05:13:32;6.30;97.00
7447;DHT22;3765;47.962;7.952;2023-11-22T05:16:01;6.30;97.00
7447;DHT22;3765;47.962;7.952;2023-11-22T05:18:30;6.30;97.00
7447;DHT22;3765;47.962;7.952;2023-11-22T05:20:58;6.30;97.00
7447;DHT22;3765;47.962;7.952;2023-11-22T05:23:26;6.30;97.00
7447;DHT22;3765;47.962;7.952;2023-11-22T05:25:54;6.30;97.00
7447;DHT22;3765;47.962;7.952;2023-11-22T05:28:23;6.30;97.00
7447;DHT22;3765;47.962;7.952;2023-11-22T05:30:52;6.20;97.00
7447;DHT22;3765;47.962;7.952;2023-11-22T05:33:20;6.30;97.00
7447;DHT22;3765;47.962;7.952;2023-11-22T05:35:50;6.20;97.10
7447;DHT22;3765;47.962;7.952;2023-11-22T05:38:18;6.20;97.00
7447;DHT22;3765;47.962;7.952;2023-11-22T05:40:46;6.20;97.00
7447;DHT22;3765;47.962;7.952;2023-11-22T05:43:15;6.30;97.10
7447;DHT22;3765;47.962;7.952;2023-11-22T05:45:44;6.30;97.00
7447;DHT22;3765;47.962;7.952;2023-11-22T05:48:18;6.30;97.10
7447;DHT22;3765;47.962;7.952;2023-11-22T05:50:47;6.30;97.00
7447;DHT22;3765;47.962;7.952;2023-11-22T05:53:16;6.30;97.10
7447;DHT22;3765;47.962;7.952;2023-11-22T05:55:46;6.30;97.00
7447;DHT22;3765;47.962;7.952;2023-11-22T05:58:15;6.30;97.10
7447;DHT22;3765;47.962;7.952;2023-11-22T06:00:44;6.30;97.10
7447;DHT22;3765;47.962;7.952;2023-11-22T06:03:13;6.30;97.10
7447;DHT22;3765;47.962;7.952;2023-11-22T06:05:42;6.30;97.10
7447;DHT22;3765;47.962;7.952;2023-11-22T06:08:11;6.30;97.10
7447;DHT22;3765;47.962;7.952;2023-11-22T06:10:39;6.30;97.10
7447;DHT22;3765;47.962;7.952;2023-11-22T06:13:09;6.20;97.10
7447;DHT22;3765;47.962;7.952;2023-11-22T06:15:39;6.20;97.10
7447;DHT22;3765;47.962;7.952;2023-11-22T06:18:07;6.20;97.10
7447;DHT22;3765;47.962;7.952;2023-11-22T06:20:36;6.20;97.10
7447;DHT22;3765;47.962;7.952;2023-11-22T06:23:06;6.20;97.10
7447;DHT22;3765;47.962;7.952;2023-11-22T06:25:34;6.20;97.10
7447;DHT22;3765;47.962;7.952;2023-11-22T06:28:03;6.10;97.10
7447;DHT22;3765;47.962;7.952;2023-11-22T06:30:31;6.10;97.10
7447;DHT22;3765;47.962;7.952;2023-11-22T06:33:00;6.10;97.10
7447;DHT22;3765;47.962;7.952;2023-11-22T06:35:28;6.00;97.10
7447;DHT22;3765;47.962;7.952;2023-11-22T06:37:56;6.00;97.10
7447;DHT22;3765;47.962;7.952;2023-11-22T06:40:26;6.00;97.00
7447;DHT22;3765;47.962;7.952;2023-11-22T06:42:56;5.90;97.00
7447;DHT22;3765;47.962;7.952;2023-11-22T06:45:24;5.80;97.00
7447;DHT22;3765;47.962;7.952;2023-11-22T06:47:53;5.90;97.00
7447;DHT22;3765;47.962;7.952;2023-11-22T06:50:21;5.90;97.10
7447;DHT22;3765;47.962;7.952;2023-11-22T06:52:49;5.90;97.10
7447;DHT22;3765;47.962;7.952;2023-11-22T06:55:19;6.00;97.10
7447;DHT22;3765;47.962;7.952;2023-11-22T06:57:49;6.10;97.10
7447;DHT22;3765;47.962;7.952;2023-11-22T07:00:18;6.10;97.10
7447;DHT22;3765;47.962;7.952;2023-11-22T07:02:47;5.90;97.10
7447;DHT22;3765;47.962;7.952;2023-11-22T07:05:15;5.90;97.10
7447;DHT22;3765;47.962;7.952;2023-11-22T07:07:44;5.90;97.10
7447;DHT22;3765;47.962;7.952;2023-11-22T07:10:13;6.00;97.10
7447;DHT22;3765;47.962;7.952;2023-11-22T07:12:42;5.80;97.10
7447;DHT22;3765;47.962;7.952;2023-11-22T07:15:12;5.80;97.10
7447;DHT22;3765;47.962;7.952;2023-11-22T07:17:40;5.70;97.10
7447;DHT22;3765;47.962;7.952;2023-11-22T07:20:09;5.50;97.00
7447;DHT22;3765;47.962;7.952;2023-11-22T07:22:43;5.10;97.00
7447;DHT22;3765;47.962;7.952;2023-11-22T07:25:11;4.90;97.00
7447;DHT22;3765;47.962;7.952;2023-11-22T07:27:45;4.90;97.00
7447;DHT22;3765;47.962;7.952;2023-11-22T07:30:15;4.90;97.00
7447;DHT22;3765;47.962;7.952;2023-11-22T07:32:46;5.10;97.00
7447;DHT22;3765;47.962;7.952;2023-11-22T07:35:15;5.20;97.00
7447;DHT22;3765;47.962;7.952;2023-11-22T07:37:47;5.30;97.00
7447;DHT22;3765;47.962;7.952;2023-11-22T07:40:17;5.30;97.10
7447;DHT22;3765;47.962;7.952;2023-11-22T07:42:46;5.40;97.10
7447;DHT22;3765;47.962;7.952;2023-11-22T07:45:15;5.40;97.10
7447;DHT22;3765;47.962;7.952;2023-11-22T07:47:44;5.40;97.00
7447;DHT22;3765;47.962;7.952;2023-11-22T07:50:13;5.50;97.10
7447;DHT22;3765;47.962;7.952;2023-11-22T07:52:42;5.60;97.10
7447;DHT22;3765;47.962;7.952;2023-11-22T07:55:11;5.60;97.10
7447;DHT22;3765;47.962;7.952;2023-11-22T07:57:39;5.60;97.10
7447;DHT22;3765;47.962;7.952;2023-11-22T08:00:08;5.60;97.10
7447;DHT22;3765;47.962;7.952;2023-11-22T08:02:39;5.60;97.10
7447;DHT22;3765;47.962;7.952;2023-11-22T08:05:10;5.60;97.10
7447;DHT22;3765;47.962;7.952;2023-11-22T08:07:39;5.50;97.10
7447;DHT22;3765;47.962;7.952;2023-11-22T08:10:09;5.40;97.10
7447;DHT22;3765;47.962;7.952;2023-11-22T08:12:43;5.40;97.10
7447;DHT22;3765;47.962;7.952;2023-11-22T08:15:11;5.50;97.10
7447;DHT22;3765;47.962;7.952;2023-11-22T08:17:42;5.60;97.10
7447;DHT22;3765;47.962;7.952;2023-11-22T08:20:11;5.60;97.10
7447;DHT22;3765;47.962;7.952;2023-11-22T08:22:41;5.50;97.10
7447;DHT22;3765;47.962;7.952;2023-11-22T08:25:09;5.40;97.10
7447;DHT22;3765;47.962;7.952;2023-11-22T08:27:40;5.50;97.10
7447;DHT22;3765;47.962;7.952;2023-11-22T08:30:09;5.60;97.10
7447;DHT22;3765;47.962;7.952;2023-11-22T08:32:42;5.70;97.10
7447;DHT22;3765;47.962;7.952;2023-11-22T08:35:11;5.70;97.10
7447;DHT22;3765;47.962;7.952;2023-11-22T08:37:40;5.60;97.10
7447;DHT22;3765;47.962;7.952;2023-11-22T08:40:10;5.50;97.10
7447;DHT22;3765;47.962;7.952;2023-11-22T08:42:41;5.40;97.10
7447;DHT22;3765;47.962;7.952;2023-11-22T08:45:10;5.40;97.10
7447;DHT22;3765;47.962;7.952;2023-11-22T08:47:42;5.40;97.10
7447;DHT22;3765;47.962;7.952;2023-11-22T08:50:11;5.50;97.10
7447;DHT22;3765;47.962;7.952;2023-11-22T08:52:40;5.60;97.10
7447;DHT22;3765;47.962;7.952;2023-11-22T08:55:09;5.70;97.10
7447;DHT22;3765;47.962;7.952;2023-11-22T08:57:38;5.70;97.10
7447;DHT22;3765;47.962;7.952;2023-11-22T09:00:08;5.70;97.10
7447;DHT22;3765;47.962;7.952;2023-11-22T09:02:38;5.80;97.10
7447;DHT22;3765;47.962;7.952;2023-11-22T09:05:09;5.50;97.10
7447;DHT22;3765;47.962;7.952;2023-11-22T09:07:40;5.40;97.10
7447;DHT22;3765;47.962;7.952;2023-11-22T09:10:09;5.40;97.10
7447;DHT22;3765;47.962;7.952;2023-11-22T09:12:42;5.30;97.00
7447;DHT22;3765;47.962;7.952;2023-11-22T09:15:11;5.00;97.00
7447;DHT22;3765;47.962;7.952;2023-11-22T09:17:42;5.20;97.00
7447;DHT22;3765;47.962;7.952;2023-11-22T09:20:13;5.30;97.00
7447;DHT22;3765;47.962;7.952;2023-11-22T09:22:45;5.40;97.00
7447;DHT22;3765;47.962;7.952;2023-11-22T09:25:15;5.30;97.00
7447;DHT22;3765;47.962;7.952;2023-11-22T09:27:46;5.30;97.00
7447;DHT22;3765;47.962;7.952;2023-11-22T09:30:18;5.30;97.00
7447;DHT22;3765;47.962;7.952;2023-11-22T09:33:00;5.20;97.00
7447;DHT22;3765;47.962;7.952;2023-11-22T09:35:31;4.90;97.00
7447;DHT22;3765;47.962;7.952;2023-11-22T09:38:00;5.10;97.00
7447;DHT22;3765;47.962;7.952;2023-11-22T09:40:30;5.10;97.00
7447;DHT22;3765;47.962;7.952;2023-11-22T09:42:59;5.00;97.00
7447;DHT22;3765;47.962;7.952;2023-11-22T09:45:29;5.20;97.00
7447;DHT22;3765;47.962;7.952;2023-11-22T09:47:59;5.40;97.00
7447;DHT22;3765;47.962;7.952;2023-11-22T09:50:35;5.40;97.00
7447;DHT22;3765;47.962;7.952;2023-11-22T09:53:11;5.60;97.00
7447;DHT22;3765;47.962;7.952;2023-11-22T09:55:41;5.40;97.00
7447;DHT22;3765;47.962;7.952;2023-11-22T09:58:11;5.70;97.10
7447;DHT22;3765;47.962;7.952;2023-11-22T10:00:40;5.80;97.10
7447;DHT22;3765;47.962;7.952;2023-11-22T10:03:09;5.70;97.10
7447;DHT22;3765;47.962;7.952;2023-11-22T10:05:42;6.10;97.10
7447;DHT22;3765;47.962;7.952;2023-11-22T10:08:10;6.10;97.10
7447;DHT22;3765;47.962;7.952;2023-11-22T10:10:39;6.00;97.10
7447;DHT22;3765;47.962;7.952;2023-11-22T10:13:09;6.00;97.10
7447;DHT22;3765;47.962;7.952;2023-11-22T10:15:39;6.20;97.10
7447;DHT22;3765;47.962;7.952;2023-11-22T10:18:08;6.00;97.10
7447;DHT22;3765;47.962;7.952;2023-11-22T10:20:37;6.10;97.10
7447;DHT22;3765;47.962;7.952;2023-11-22T10:23:09;6.10;97.10
7447;DHT22;3765;47.962;7.952;2023-11-22T10:25:43;6.20;97.10
7447;DHT22;3765;47.962;7.952;2023-11-22T10:28:12;6.10;97.10
7447;DHT22;3765;47.962;7.952;2023-11-22T10:30:40;6.00;97.10
7447;DHT22;3765;47.962;7.952;2023-11-22T10:33:09;6.00;97.10
7447;DHT22;3765;47.962;7.952;2023-11-22T10:35:42;5.90;97.10
7447;DHT22;3765;47.962;7.952;2023-11-22T10:38:14;6.10;97.10
7447;DHT22;3765;47.962;7.952;2023-11-22T10:40:43;6.20;97.10
7447;DHT22;3765;47.962;7.952;2023-11-22T10:43:12;6.30;97.10
7447;DHT22;3765;47.962;7.952;2023-11-22T10:45:42;6.30;97.10
7447;DHT22;3765;47.962;7.952;2023-11-22T10:48:14;6.40;97.10
7447;DHT22;3765;47.962;7.952;2023-11-22T10:50:44;6.30;97.10
7447;DHT22;3765;47.962;7.952;2023-11-22T10:53:16;6.10;97.10
7447;DHT22;3765;47.962;7.952;2023-11-22T10:55:50;6.10;97.00
7447;DHT22;3765;47.962;7.952;2023-11-22T10:58:21;5.90;97.00
7447;DHT22;3765;47.962;7.952;2023-11-22T11:00:50;6.00;97.00
7447;DHT22;3765;47.962;7.952;2023-11-22T11:03:18;6.10;97.00
7447;DHT22;3765;47.962;7.952;2023-11-22T11:05:52;6.20;97.10
7447;DHT22;3765;47.962;7.952;2023-11-22T11:08:25;6.20;97.00
7447;DHT22;3765;47.962;7.952;2023-11-22T11:10:54;6.20;97.00
7447;DHT22;3765;47.962;7.952;2023-11-22T11:13:23;6.20;97.00
7447;DHT22;3765;47.962;7.952;2023-11-22T11:15:53;6.10;97.00
7447;DHT22;3765;47.962;7.952;2023-11-22T11:18:23;6.00;97.00
7447;DHT22;3765;47.962;7.952;2023-11-22T11:20:53;6.10;97.00
7447;DHT22;3765;47.962;7.952;2023-11-22T11:23:24;6.10;97.00
7447;DHT22;3765;47.962;7.952;2023-11-22T11:25:54;6.10;97.00
7447;DHT22;3765;47.962;7.952;2023-11-22T11:28:23;6.10;97.00
7447;DHT22;3765;47.962;7.952;2023-11-22T11:30:53;6.10;97.10
7447;DHT22;3765;47.962;7.952;2023-11-22T11:33:27;6.00;97.00
7447;DHT22;3765;47.962;7.952;2023-11-22T11:35:57;6.00;97.00
7447;DHT22;3765;47.962;7.952;2023-11-22T11:38:31;6.10;97.00
7447;DHT22;3765;47.962;7.952;2023-11-22T11:41:06;6.10;97.10
7447;DHT22;3765;47.962;7.952;2023-11-22T11:43:40;6.10;97.00
7447;DHT22;3765;47.962;7.952;2023-11-22T11:46:09;6.20;97.00
7447;DHT22;3765;47.962;7.952;2023-11-22T11:48:41;6.10;97.10
7447;DHT22;3765;47.962;7.952;2023-11-22T11:51:13;6.10;97.10
7447;DHT22;3765;47.962;7.952;2023-11-22T11:53:42;6.10;97.00
7447;DHT22;3765;47.962;7.952;2023-11-22T11:56:11;6.00;97.00
7447;DHT22;3765;47.962;7.952;2023-11-22T11:58:41;6.00;97.00
7447;DHT22;3765;47.962;7.952;2023-11-22T12:01:11;6.00;97.00
7447;DHT22;3765;47.962;7.952;2023-11-22T12:03:40;5.90;97.00
7447;DHT22;3765;47.962;7.952;2023-11-22T12:06:08;5.90;97.10
7447;DHT22;3765;47.962;7.952;2023-11-22T12:08:36;5.90;97.10
7447;DHT22;3765;47.962;7.952;2023-11-22T12:11:06;5.80;97.00
7447;DHT22;3765;47.962;7.952;2023-11-22T12:13:36;5.80;97.00
7447;DHT22;3765;47.962;7.952;2023-11-22T12:16:06;5.80;97.00
7447;DHT22;3765;47.962;7.952;2023-11-22T12:18:42;5.70;97.00
7447;DHT22;3765;47.962;7.952;2023-11-22T12:21:11;5.70;97.00
7447;DHT22;3765;47.962;7.952;2023-11-22T12:23:40;5.70;97.00
7447;DHT22;3765;47.962;7.952;2023-11-22T12:26:12;5.70;97.00
7447;DHT22;3765;47.962;7.952;2023-11-22T12:28:44;5.50;97.00
7447;DHT22;3765;47.962;7.952;2023-11-22T12:31:27;5.60;97.00
7447;DHT22;3765;47.962;7.952;2023-11-22T12:33:57;5.70;97.10
7447;DHT22;3765;47.962;7.952;2023-11-22T12:36:26;5.80;97.10
7447;DHT22;3765;47.962;7.952;2023-11-22T12:38:55;5.60;97.00
7447;DHT22;3765;47.962;7.952;2023-11-22T12:41:26;5.60;97.00
7447;DHT22;3765;47.962;7.952;2023-11-22T12:44:03;5.60;97.00
7447;DHT22;3765;47.962;7.952;2023-11-22T12:46:48;5.60;97.00
7447;DHT22;3765;47.962;7.952;2023-11-22T12:49:23;5.60;97.00
7447;DHT22;3765;47.962;7.952;2023-11-22T12:51:51;5.50;97.00
7447;DHT22;3765;47.962;7.952;2023-11-22T12:54:20;5.50;97.00
7447;DHT22;3765;47.962;7.952;2023-11-22T12:56:52;5.50;97.00
7447;DHT22;3765;47.962;7.952;2023-11-22T12:59:26;5.60;97.00
7447;DHT22;3765;47.962;7.952;2023-11-22T13:01:58;5.50;97.00
7447;DHT22;3765;47.962;7.952;2023-11-22T13:04:28;5.50;97.00
7447;DHT22;3765;47.962;7.952;2023-11-22T13:06:58;5.50;97.00
7447;DHT22;3765;47.962;7.952;2023-11-22T13:09:27;5.50;97.00
7447;DHT22;3765;47.962;7.952;2023-11-22T13:11:58;5.50;97.00
7447;DHT22;3765;47.962;7.952;2023-11-22T13:14:27;5.40;97.00
7447;DHT22;3765;47.962;7.952;2023-11-22T13:16:59;5.40;97.00
7447;DHT22;3765;47.962;7.952;2023-11-22T13:19:27;5.30;97.00
7447;DHT22;3765;47.962;7.952;2023-11-22T13:21:56;5.40;97.00
7447;DHT22;3765;47.962;7.952;2023-11-22T13:24:24;5.30;97.00
7447;DHT22;3765;47.962;7.952;2023-11-22T13:26:52;5.30;97.00
7447;DHT22;3765;47.962;7.952;2023-11-22T13:29:22;5.30;97.00
7447;DHT22;3765;47.962;7.952;2023-11-22T13:31:51;5.30;97.00
7447;DHT22;3765;47.962;7.952;2023-11-22T13:34:19;5.20;97.00
7447;DHT22;3765;47.962;7.952;2023-11-22T13:36:47;5.20;97.00
7447;DHT22;3765;47.962;7.952;2023-11-22T13:39:15;5.20;97.00
7447;DHT22;3765;47.962;7.952;2023-11-22T13:41:44;5.20;97.10
7447;DHT22;3765;47.962;7.952;2023-11-22T13:44:13;5.10;97.00
7447;DHT22;3765;47.962;7.952;2023-11-22T13:46:43;5.00;97.00
7447;DHT22;3765;47.962;7.952;2023-11-22T13:49:11;4.80;97.00
7447;DHT22;3765;47.962;7.952;2023-11-22T13:51:39;4.90;97.00
7447;DHT22;3765;47.962;7.952;2023-11-22T13:54:07;5.00;97.00
7447;DHT22;3765;47.962;7.952;2023-11-22T13:56:37;5.10;97.00
7447;DHT22;3765;47.962;7.952;2023-11-22T13:59:05;5.10;97.10
7447;DHT22;3765;47.962;7.952;2023-11-22T14:01:34;5.20;97.00
7447;DHT22;3765;47.962;7.952;2023-11-22T14:04:04;5.20;97.10
7447;DHT22;3765;47.962;7.952;2023-11-22T14:06:33;5.10;97.00
7447;DHT22;3765;47.962;7.952;2023-11-22T14:09:01;5.20;97.10
7447;DHT22;3765;47.962;7.952;2023-11-22T14:11:30;5.20;97.10
7447;DHT22;3765;47.962;7.952;2023-11-22T14:14:00;5.20;97.10
7447;DHT22;3765;47.962;7.952;2023-11-22T14:16:30;5.10;97.00
7447;DHT22;3765;47.962;7.952;2023-11-22T14:18:59;5.10;97.10
7447;DHT22;3765;47.962;7.952;2023-11-22T14:21:29;4.90;97.00
7447;DHT22;3765;47.962;7.952;2023-11-22T14:23:59;4.90;97.00
7447;DHT22;3765;47.962;7.952;2023-11-22T14:26:27;4.80;97.10
7447;DHT22;3765;47.962;7.952;2023-11-22T14:28:55;4.80;97.10
7447;DHT22;3765;47.962;7.952;2023-11-22T14:31:23;4.70;97.00
7447;DHT22;3765;47.962;7.952;2023-11-22T14:33:52;4.80;97.10
7447;DHT22;3765;47.962;7.952;2023-11-22T14:36:20;4.70;97.00
7447;DHT22;3765;47.962;7.952;2023-11-22T14:38:49;4.60;97.00
7447;DHT22;3765;47.962;7.952;2023-11-22T14:41:21;4.50;97.00
7447;DHT22;3765;47.962;7.952;2023-11-22T14:43:49;4.50;97.00
7447;DHT22;3765;47.962;7.952;2023-11-22T14:46:17;4.70;97.10
7447;DHT22;3765;47.962;7.952;2023-11-22T14:48:46;4.60;97.10
7447;DHT22;3765;47.962;7.952;2023-11-22T14:51:16;4.70;97.10
7447;DHT22;3765;47.962;7.952;2023-11-22T14:53:45;4.70;97.10
7447;DHT22;3765;47.962;7.952;2023-11-22T14:56:15;4.60;97.10
7447;DHT22;3765;47.962;7.952;2023-11-22T14:58:44;4.60;97.10
7447;DHT22;3765;47.962;7.952;2023-11-22T15:01:20;4.60;97.10
7447;DHT22;3765;47.962;7.952;2023-11-22T15:03:50;4.70;97.10
7447;DHT22;3765;47.962;7.952;2023-11-22T15:06:20;4.60;97.10
7447;DHT22;3765;47.962;7.952;2023-11-22T15:08:49;4.40;97.00
7447;DHT22;3765;47.962;7.952;2023-11-22T15:11:19;4.40;97.00
7447;DHT22;3765;47.962;7.952;2023-11-22T15:13:47;4.10;97.00
7447;DHT22;3765;47.962;7.952;2023-11-22T15:16:15;4.10;97.00
7447;DHT22;3765;47.962;7.952;2023-11-22T15:18:45;3.90;97.00
7447;DHT22;3765;47.962;7.952;2023-11-22T15:21:14;4.00;97.00
7447;DHT22;3765;47.962;7.952;2023-11-22T15:23:42;4.20;97.00
7447;DHT22;3765;47.962;7.952;2023-11-22T15:26:10;4.30;97.10
7447;DHT22;3765;47.962;7.952;2023-11-22T15:28:40;4.30;97.10
7447;DHT22;3765;47.962;7.952;2023-11-22T15:31:09;4.30;97.10
7447;DHT22;3765;47.962;7.952;2023-11-22T15:33:37;4.40;97.10
7447;DHT22;3765;47.962;7.952;2023-11-22T15:36:06;4.40;97.10
7447;DHT22;3765;47.962;7.952;2023-11-22T15:38:35;4.30;97.10
7447;DHT22;3765;47.962;7.952;2023-11-22T15:41:03;4.20;97.10
7447;DHT22;3765;47.962;7.952;2023-11-22T15:43:43;4.10;97.00
7447;DHT22;3765;47.962;7.952;2023-11-22T15:46:11;3.90;97.00
7447;DHT22;3765;47.962;7.952;2023-11-22T15:48:41;3.80;97.00
7447;DHT22;3765;47.962;7.952;2023-11-22T15:51:11;3.80;97.00
7447;DHT22;3765;47.962;7.952;2023-11-22T15:53:39;3.60;97.00
7447;DHT22;3765;47.962;7.952;2023-11-22T15:56:08;3.50;97.00
7447;DHT22;3765;47.962;7.952;2023-11-22T15:58:43;3.80;97.00
7447;DHT22;3765;47.962;7.952;2023-11-22T16:01:12;3.90;97.00
7447;DHT22;3765;47.962;7.952;2023-11-22T16:03:41;4.00;97.10
7447;DHT22;3765;47.962;7.952;2023-11-22T16:06:10;4.00;97.00
7447;DHT22;3765;47.962;7.952;2023-11-22T16:08:40;4.00;97.00
7447;DHT22;3765;47.962;7.952;2023-11-22T16:11:08;4.00;97.10
7447;DHT22;3765;47.962;7.952;2023-11-22T16:13:39;4.20;97.10
7447;DHT22;3765;47.962;7.952;2023-11-22T16:16:09;4.10;97.10
7447;DHT22;3765;47.962;7.952;2023-11-22T16:18:39;4.20;97.10
7447;DHT22;3765;47.962;7.952;2023-11-22T16:21:07;4.20;97.10
7447;DHT22;3765;47.962;7.952;2023-11-22T16:23:37;4.30;97.10
7447;DHT22;3765;47.962;7.952;2023-11-22T16:26:06;4.40;97.10
7447;DHT22;3765;47.962;7.952;2023-11-22T16:28:34;4.30;97.10
7447;DHT22;3765;47.962;7.952;2023-11-22T16:31:04;4.30;97.10